Time;durP1;ratioP1;P1;durP2;ratioP2;P2;SDS_P1;SDS_P2;PMS_P1;PMS_P2;Temp;Humidity;BMP_temperature;BMP_pressure;BME280_temperature;BME280_humidity;BME280_pressure;Samples;Min_cycle;Max_cycle;Signal;HPM_P1;HPM_P2
2022/11/07 00:01:35;;;;;;;0.30;0.30;;;;;;;;;;6353900;22;20015;-92
2022/11/07 00:04:33;;;;;;;0.20;0.20;;;;;;;;;;6338590;22;20033;-92
2022/11/07 00:10:26;;;;;;;0.20;0.20;;;;;;;;;;6375266;22;20026;-92
2022/11/07 00:13:34;;;;;;;0.20;0.20;;;;;;;;;;6363148;22;20018;-92
2022/11/07 00:16:06;;;;;;;0.22;0.22;;;;;;;;;;6364053;22;20026;-91
2022/11/07 00:18:33;;;;;;;0.20;0.20;;;;;;;;;;6338708;22;20023;-89
2022/11/07 00:21:09;;;;;;;0.20;0.20;;;;;;;;;;6337011;22;20082;-92
2022/11/07 00:23:47;;;;;;;0.20;0.20;;;;;;;;;;6341170;22;20024;-91
2022/11/07 00:26:21;;;;;;;0.10;0.10;;;;;;;;;;6335538;22;20045;-91
2022/11/07 00:29:07;;;;;;;0.30;0.30;;;;;;;;;;6337989;22;20048;-90
2022/11/07 00:31:46;;;;;;;0.30;0.30;;;;;;;;;;6365479;22;20102;-92
2022/11/07 00:34:18;;;;;;;0.28;0.28;;;;;;;;;;6338815;22;20028;-90
2022/11/07 00:42:09;;;;;;;0.17;0.17;;;;;;;;;;6355637;22;20018;-92
2022/11/07 00:44:44;;;;;;;0.10;0.10;;;;;;;;;;6337914;22;20021;-90
2022/11/07 00:47:42;;;;;;;0.30;0.30;;;;;;;;;;6362857;22;20024;-91
2022/11/07 00:50:08;;;;;;;0.20;0.20;;;;;;;;;;6336674;22;20063;-91
2022/11/07 00:52:35;;;;;;;0.20;0.20;;;;;;;;;;6363154;22;20006;-93
2022/11/07 01:02:23;;;;;;;0.20;0.20;;;;;;;;;;6377939;22;20006;-92
2022/11/07 01:11:35;;;;;;;0.30;0.30;;;;;;;;;;6378476;22;20051;-93
2022/11/07 01:18:03;;;;;;;0.13;0.13;;;;;;;;;;6376645;22;20002;-92
2022/11/07 01:20:31;;;;;;;0.28;0.28;;;;;;;;;;6340253;22;20025;-92
2022/11/07 01:22:57;;;;;;;0.30;0.30;;;;;;;;;;6334953;22;20029;-92
2022/11/07 01:25:29;;;;;;;0.10;0.10;;;;;;;;;;6339416;22;19999;-91
2022/11/07 01:28:18;;;;;;;0.10;0.10;;;;;;;;;;6339563;22;20453;-92
2022/11/07 01:59:19;;;;;;;0.20;0.20;;;;;;;;;;6362368;22;20049;-92
2022/11/07 02:01:45;;;;;;;0.30;0.30;;;;;;;;;;6335184;22;20054;-92
2022/11/07 02:06:55;;;;;;;0.30;0.30;;;;;;;;;;6285534;22;20184;-91
2022/11/07 02:09:21;;;;;;;0.17;0.17;;;;;;;;;;6278691;22;20019;-93
2022/11/07 02:11:47;;;;;;;0.28;0.28;;;;;;;;;;6305226;22;20021;-93
2022/11/07 02:14:21;;;;;;;0.17;0.17;;;;;;;;;;6307615;22;20011;-92
2022/11/07 02:22:36;;;;;;;0.10;0.10;;;;;;;;;;6363332;22;20057;-93
2022/11/07 02:25:17;;;;;;;0.20;0.20;;;;;;;;;;6336076;22;20074;-92
2022/11/07 02:27:45;;;;;;;0.15;0.15;;;;;;;;;;6339842;22;20029;-92
2022/11/07 02:30:17;;;;;;;0.20;0.20;;;;;;;;;;6336897;22;20002;-93
2022/11/07 02:32:44;;;;;;;0.10;0.10;;;;;;;;;;6335507;22;20067;-92
2022/11/07 02:35:29;;;;;;;0.10;0.10;;;;;;;;;;6336951;22;20102;-92
2022/11/07 02:38:01;;;;;;;0.20;0.20;;;;;;;;;;6335975;22;20003;-92
2022/11/07 02:53:38;;;;;;;0.20;0.20;;;;;;;;;;6339586;22;20018;-92
2022/11/07 03:06:43;;;;;;;0.17;0.17;;;;;;;;;;6365110;22;20024;-93
2022/11/07 03:09:10;;;;;;;0.30;0.30;;;;;;;;;;6334072;22;20025;-92
2022/11/07 03:14:37;;;;;;;0.30;0.30;;;;;;;;;;6337660;22;20013;-91
2022/11/07 03:17:04;;;;;;;0.20;0.20;;;;;;;;;;6309906;22;20497;-90
2022/11/07 03:19:48;;;;;;;0.20;0.20;;;;;;;;;;6289234;22;20027;-91
2022/11/07 03:22:33;;;;;;;0.20;0.20;;;;;;;;;;6344450;22;20017;-90
2022/11/07 03:28:03;;;;;;;0.35;0.35;;;;;;;;;;6372795;22;20057;-93
2022/11/07 03:30:29;;;;;;;0.20;0.20;;;;;;;;;;6309348;22;20097;-92
2022/11/07 03:33:39;;;;;;;0.15;0.15;;;;;;;;;;6310083;22;20015;-91
2022/11/07 03:36:23;;;;;;;0.17;0.17;;;;;;;;;;6185397;23;20025;-90
2022/11/07 03:38:57;;;;;;;0.30;0.30;;;;;;;;;;6183601;23;20012;-91
2022/11/07 03:41:23;;;;;;;0.20;0.20;;;;;;;;;;6159128;23;20028;-91
2022/11/07 03:44:21;;;;;;;0.15;0.15;;;;;;;;;;6157664;23;20021;-92
2022/11/07 03:47:21;;;;;;;0.20;0.20;;;;;;;;;;6153990;23;20013;-92
2022/11/07 03:49:47;;;;;;;0.17;0.17;;;;;;;;;;6158932;23;20040;-92
2022/11/07 03:52:17;;;;;;;0.10;0.10;;;;;;;;;;6241265;22;20015;-92
2022/11/07 03:54:43;;;;;;;0.10;0.10;;;;;;;;;;6312756;22;20073;-92
2022/11/07 04:05:14;;;;;;;0.10;0.10;;;;;;;;;;6317249;22;20370;-91
2022/11/07 04:07:40;;;;;;;0.20;0.20;;;;;;;;;;6337098;22;20053;-90
2022/11/07 04:10:08;;;;;;;0.20;0.20;;;;;;;;;;6364042;22;20018;-91
2022/11/07 04:18:34;;;;;;;0.17;0.17;;;;;;;;;;6340495;22;20029;-90
2022/11/07 04:21:09;;;;;;;0.20;0.20;;;;;;;;;;6339678;22;20090;-89
2022/11/07 04:29:44;;;;;;;0.20;0.20;;;;;;;;;;6308459;22;20022;-90
2022/11/07 04:32:13;;;;;;;0.20;0.20;;;;;;;;;;6355643;22;20029;-91
2022/11/07 04:34:40;;;;;;;0.10;0.10;;;;;;;;;;6337085;22;20037;-92
2022/11/07 04:37:06;;;;;;;0.20;0.20;;;;;;;;;;6333958;22;20054;-92
2022/11/07 04:39:35;;;;;;;0.20;0.20;;;;;;;;;;6335266;22;20018;-91
2022/11/07 04:42:08;;;;;;;0.20;0.20;;;;;;;;;;6362502;22;20019;-91
2022/11/07 04:44:35;;;;;;;0.30;0.30;;;;;;;;;;6335534;22;20025;-91
2022/11/07 04:47:02;;;;;;;0.20;0.20;;;;;;;;;;6336301;22;20026;-91
2022/11/07 04:49:40;;;;;;;0.20;0.20;;;;;;;;;;6338945;22;20033;-91
2022/11/07 04:52:06;;;;;;;0.20;0.20;;;;;;;;;;6335346;22;20034;-90
2022/11/07 04:54:48;;;;;;;0.13;0.13;;;;;;;;;;6337434;22;20027;-90
2022/11/07 05:00:39;;;;;;;0.10;0.10;;;;;;;;;;6288087;22;20043;-90
2022/11/07 05:03:08;;;;;;;0.10;0.10;;;;;;;;;;6335589;22;20065;-91
2022/11/07 05:08:43;;;;;;;0.20;0.20;;;;;;;;;;6364916;22;20418;-92
2022/11/07 05:11:16;;;;;;;0.17;0.17;;;;;;;;;;6337180;22;20025;-91
2022/11/07 05:14:32;;;;;;;0.30;0.30;;;;;;;;;;6340284;22;20020;-93
2022/11/07 05:17:14;;;;;;;0.20;0.20;;;;;;;;;;6336111;22;20037;-91
2022/11/07 05:19:42;;;;;;;0.30;0.30;;;;;;;;;;6361702;22;20022;-92
2022/11/07 05:25:20;;;;;;;0.17;0.17;;;;;;;;;;6285009;22;20023;-91
2022/11/07 05:27:46;;;;;;;0.30;0.30;;;;;;;;;;6329361;22;20098;-90
2022/11/07 05:30:20;;;;;;;0.20;0.20;;;;;;;;;;6337375;22;20030;-91
2022/11/07 05:32:55;;;;;;;0.30;0.30;;;;;;;;;;6338188;22;20385;-91
2022/11/07 05:37:57;;;;;;;0.13;0.13;;;;;;;;;;6331549;22;20023;-91
2022/11/07 05:43:48;;;;;;;0.30;0.30;;;;;;;;;;6345799;22;20053;-90
2022/11/07 05:46:51;;;;;;;0.10;0.10;;;;;;;;;;6240630;23;20032;-90
2022/11/07 05:49:24;;;;;;;0.20;0.20;;;;;;;;;;6216304;23;20020;-90
2022/11/07 05:54:59;;;;;;;0.20;0.20;;;;;;;;;;6213530;22;20027;-91
2022/11/07 05:57:27;;;;;;;0.20;0.20;;;;;;;;;;6279886;22;20017;-92
2022/11/07 06:12:40;;;;;;;0.10;0.10;;;;;;;;;;6344046;22;20026;-91
2022/11/07 06:26:48;;;;;;;0.30;0.30;;;;;;;;;;6302341;22;20050;-92
2022/11/07 06:29:15;;;;;;;0.22;0.22;;;;;;;;;;6270318;22;20023;-91
2022/11/07 07:33:20;;;;;;;0.10;0.10;;;;;;;;;;6294616;22;20006;-92
2022/11/07 07:47:27;;;;;;;0.20;0.20;;;;;;;;;;6355979;22;20037;-90
2022/11/07 07:59:09;;;;;;;0.10;0.10;;;;;;;;;;6220162;23;20031;-91
2022/11/07 08:01:50;;;;;;;0.20;0.20;;;;;;;;;;6130019;23;20082;-91
2022/11/07 08:04:50;;;;;;;0.10;0.10;;;;;;;;;;6176731;23;20026;-91
2022/11/07 08:26:15;;;;;;;0.15;0.15;;;;;;;;;;6374718;22;20014;-91
2022/11/07 08:28:42;;;;;;;0.20;0.20;;;;;;;;;;6335815;22;20009;-91
2022/11/07 08:34:20;;;;;;;0.20;0.20;;;;;;;;;;6360752;22;20007;-92
2022/11/07 08:36:47;;;;;;;0.30;0.30;;;;;;;;;;6337632;22;20046;-91
2022/11/07 08:39:22;;;;;;;0.30;0.30;;;;;;;;;;6338626;22;20015;-90
2022/11/07 08:41:55;;;;;;;0.30;0.30;;;;;;;;;;6277290;22;20034;-91
2022/11/07 08:47:28;;;;;;;0.20;0.20;;;;;;;;;;6151337;23;20037;-92
2022/11/07 08:53:28;;;;;;;0.20;0.20;;;;;;;;;;6193337;23;20025;-91
2022/11/07 08:56:17;;;;;;;0.15;0.15;;;;;;;;;;6192836;23;20048;-92
2022/11/07 08:58:44;;;;;;;0.10;0.10;;;;;;;;;;6190375;23;20048;-92
2022/11/07 09:01:43;;;;;;;0.30;0.30;;;;;;;;;;6190828;23;20040;-92
2022/11/07 09:04:10;;;;;;;0.30;0.30;;;;;;;;;;6270615;22;20053;-93
2022/11/07 09:06:36;;;;;;;0.20;0.20;;;;;;;;;;6313112;22;20022;-91
2022/11/07 09:09:05;;;;;;;0.20;0.20;;;;;;;;;;6336387;22;20022;-91
2022/11/07 09:11:46;;;;;;;0.20;0.20;;;;;;;;;;6347019;22;20023;-92
2022/11/07 09:14:38;;;;;;;0.30;0.30;;;;;;;;;;6353584;22;20002;-91
2022/11/07 09:17:04;;;;;;;0.20;0.20;;;;;;;;;;6340373;22;20070;-91
2022/11/07 09:36:13;;;;;;;0.10;0.10;;;;;;;;;;6376942;22;20010;-91
2022/11/07 09:39:26;;;;;;;0.30;0.30;;;;;;;;;;6358648;22;20494;-91
2022/11/07 09:53:45;;;;;;;0.30;0.30;;;;;;;;;;6355263;22;20039;-93
2022/11/07 09:56:12;;;;;;;0.15;0.15;;;;;;;;;;6331055;22;20002;-92
2022/11/07 09:58:43;;;;;;;0.20;0.20;;;;;;;;;;6313967;22;20003;-91
2022/11/07 10:24:06;;;;;;;0.20;0.20;;;;;;;;;;6308752;22;20007;-92
2022/11/07 10:33:40;;;;;;;0.20;0.20;;;;;;;;;;6367130;22;20081;-91
2022/11/07 10:36:28;;;;;;;0.10;0.10;;;;;;;;;;6241906;22;20246;-91
2022/11/07 10:49:20;;;;;;;0.20;0.20;;;;;;;;;;6216372;23;19900;-91
2022/11/07 10:51:53;;;;;;;0.20;0.20;;;;;;;;;;6189716;23;20008;-91
2022/11/07 11:08:15;;;;;;;0.20;0.20;;;;;;;;;;6281426;22;20054;-88
2022/11/07 11:11:15;;;;;;;0.10;0.10;;;;;;;;;;6122022;23;20006;-91
2022/11/07 11:20:54;;;;;;;0.20;0.20;;;;;;;;;;6282108;22;20007;-91
2022/11/07 17:38:16;;;;;;;0.10;0.10;;;;;;;;;;6359519;22;20073;-93
2022/11/07 17:40:43;;;;;;;0.10;0.10;;;;;;;;;;6311778;22;20082;-92
2022/11/07 17:47:02;;;;;;;0.10;0.10;;;;;;;;;;6359357;22;20022;-94
2022/11/07 17:49:54;;;;;;;0.17;0.17;;;;;;;;;;6313432;22;20007;-93
2022/11/07 17:52:20;;;;;;;0.10;0.10;;;;;;;;;;6313664;22;20019;-95
2022/11/07 18:45:17;;;;;;;0.20;0.20;;;;;;;;;;6361461;22;20546;-94
2022/11/07 18:58:19;;;;;;;0.20;0.20;;;;;;;;;;6336767;22;20037;-94
2022/11/07 19:00:54;;;;;;;0.10;0.10;;;;;;;;;;6311585;22;20064;-94
2022/11/07 19:04:06;;;;;;;0.10;0.10;;;;;;;;;;6312697;22;20086;-94
2022/11/07 19:13:26;;;;;;;0.17;0.17;;;;;;;;;;6278862;23;20046;-94
2022/11/07 19:16:14;;;;;;;0.10;0.10;;;;;;;;;;6218347;23;20028;-94
2022/11/07 19:18:43;;;;;;;0.13;0.13;;;;;;;;;;6243222;22;20361;-95
2022/11/07 19:21:31;;;;;;;0.30;0.30;;;;;;;;;;6216528;22;20004;-94
2022/11/07 20:47:17;;;;;;;0.10;0.10;;;;;;;;;;6357865;22;20019;-93
2022/11/07 20:49:46;;;;;;;0.17;0.17;;;;;;;;;;6335055;22;20018;-93
2022/11/07 20:52:12;;;;;;;0.10;0.10;;;;;;;;;;6340713;22;20025;-94
2022/11/07 20:54:42;;;;;;;0.20;0.20;;;;;;;;;;6365962;22;20015;-94
2022/11/07 20:57:26;;;;;;;0.10;0.10;;;;;;;;;;6340459;22;20029;-94
2022/11/07 21:00:00;;;;;;;0.10;0.10;;;;;;;;;;6358383;22;20003;-94
2022/11/07 21:02:33;;;;;;;0.10;0.10;;;;;;;;;;6335398;22;20014;-95
2022/11/07 21:05:01;;;;;;;0.13;0.13;;;;;;;;;;6313382;22;20045;-93
2022/11/07 21:07:36;;;;;;;0.15;0.15;;;;;;;;;;6338631;22;20014;-95
2022/11/07 21:10:03;;;;;;;0.10;0.10;;;;;;;;;;6338413;22;20027;-95
2022/11/07 21:12:30;;;;;;;0.20;0.20;;;;;;;;;;6363304;22;19999;-96
2022/11/07 21:15:02;;;;;;;0.15;0.15;;;;;;;;;;6361919;22;20014;-95
2022/11/07 21:17:31;;;;;;;0.10;0.10;;;;;;;;;;6312367;22;20046;-94
2022/11/07 21:20:09;;;;;;;0.10;0.10;;;;;;;;;;6335188;22;20098;-94
2022/11/07 21:38:32;;;;;;;0.08;0.08;;;;;;;;;;6360812;22;20052;-94
2022/11/07 21:40:58;;;;;;;0.10;0.10;;;;;;;;;;6335693;22;20029;-93
2022/11/07 21:43:28;;;;;;;0.10;0.10;;;;;;;;;;6335786;22;20021;-93
2022/11/07 21:45:55;;;;;;;0.10;0.10;;;;;;;;;;6362427;22;20018;-92
2022/11/07 21:48:25;;;;;;;0.10;0.10;;;;;;;;;;6337365;22;20033;-95
2022/11/07 21:50:55;;;;;;;0.15;0.15;;;;;;;;;;6338437;22;20063;-94
2022/11/07 21:53:38;;;;;;;0.10;0.10;;;;;;;;;;6312114;22;20015;-94
2022/11/07 21:56:13;;;;;;;0.10;0.10;;;;;;;;;;6337454;22;20018;-93
2022/11/07 21:58:57;;;;;;;0.10;0.10;;;;;;;;;;6363474;22;20014;-92
2022/11/07 22:01:25;;;;;;;0.10;0.10;;;;;;;;;;6363747;22;20038;-93
2022/11/07 22:04:07;;;;;;;0.20;0.20;;;;;;;;;;6341610;22;20066;-96
2022/11/07 22:06:42;;;;;;;0.20;0.20;;;;;;;;;;6335923;22;20019;-93
2022/11/07 22:09:09;;;;;;;0.10;0.10;;;;;;;;;;6337560;22;20041;-94
2022/11/07 22:11:41;;;;;;;0.10;0.10;;;;;;;;;;6365255;22;20021;-93
2022/11/07 22:14:10;;;;;;;0.10;0.10;;;;;;;;;;6312254;22;20018;-94
2022/11/07 22:16:37;;;;;;;0.10;0.10;;;;;;;;;;6336988;22;20066;-92
2022/11/07 22:19:13;;;;;;;0.10;0.10;;;;;;;;;;6337573;22;20058;-93
2022/11/07 22:21:43;;;;;;;0.10;0.10;;;;;;;;;;6364120;22;20046;-94
2022/11/07 22:24:16;;;;;;;0.10;0.10;;;;;;;;;;6363765;22;20022;-93
2022/11/07 22:27:04;;;;;;;0.10;0.10;;;;;;;;;;6337657;22;20022;-93
2022/11/07 22:29:56;;;;;;;0.10;0.10;;;;;;;;;;6365330;22;20018;-95
2022/11/07 22:32:28;;;;;;;0.20;0.20;;;;;;;;;;6339234;22;20042;-94
2022/11/07 22:43:33;;;;;;;0.20;0.20;;;;;;;;;;6341549;22;20019;-92
2022/11/07 23:18:21;;;;;;;0.10;0.10;;;;;;;;;;6361357;22;20019;-94
2022/11/07 23:24:26;;;;;;;;;;;;;;;;;;;;;
2022/11/07 23:37:44;;;;;;;0.10;0.10;;;;;;;;;;6308861;22;20014;-92
2022/11/07 23:40:11;;;;;;;0.22;0.22;;;;;;;;;;6353861;22;20046;-95
2022/11/07 23:42:37;;;;;;;0.10;0.10;;;;;;;;;;6328623;22;20014;-95
2022/11/07 23:56:07;;;;;;;0.20;0.20;;;;;;;;;;6356749;22;20317;-96
